Time;durP1;ratioP1;P1;durP2;ratioP2;P2;SDS_P1;SDS_P2;PMS_P1;PMS_P2;Temp;Humidity;BMP_temperature;BMP_pressure;BME280_temperature;BME280_humidity;BME280_pressure;Samples;Min_cycle;Max_cycle;Signal;HPM_P1;HPM_P2
2021/08/06 00:01:34;;;;;;;3.47;2.80;;;;;;;;;;5022997;28;20022;-67
2021/08/06 00:04:00;;;;;;;3.88;2.72;;;;;;;;;;5036405;28;20055;-66
2021/08/06 00:06:27;;;;;;;5.78;2.97;;;;;;;;;;5036694;28;20057;-67
2021/08/06 00:08:57;;;;;;;3.90;3.30;;;;;;;;;;5036456;28;20022;-66
2021/08/06 00:11:28;;;;;;;5.18;2.95;;;;;;;;;;5036782;28;20041;-66
2021/08/06 00:13:55;;;;;;;5.63;3.75;;;;;;;;;;5036207;28;20021;-66
2021/08/06 00:16:22;;;;;;;5.55;3.38;;;;;;;;;;5036258;28;20021;-67
2021/08/06 00:18:48;;;;;;;5.93;3.30;;;;;;;;;;5035284;28;20021;-67
2021/08/06 00:21:14;;;;;;;7.07;3.78;;;;;;;;;;5017705;28;20036;-67
2021/08/06 00:23:40;;;;;;;6.50;3.15;;;;;;;;;;5034964;28;20048;-67
2021/08/06 00:26:06;;;;;;;8.43;4.40;;;;;;;;;;5035566;28;20088;-68
2021/08/06 00:28:32;;;;;;;6.07;3.90;;;;;;;;;;5035956;28;20033;-67
2021/08/06 00:30:58;;;;;;;6.25;3.88;;;;;;;;;;5035752;28;20029;-67
2021/08/06 00:33:25;;;;;;;3.95;3.50;;;;;;;;;;5035723;28;20029;-66
2021/08/06 00:35:51;;;;;;;6.28;4.00;;;;;;;;;;5034272;28;20090;-67
2021/08/06 00:38:17;;;;;;;6.40;4.05;;;;;;;;;;5034473;28;20029;-67
2021/08/06 00:40:43;;;;;;;5.80;3.90;;;;;;;;;;5017097;28;20053;-65
2021/08/06 00:43:09;;;;;;;6.85;3.88;;;;;;;;;;5037511;28;20388;-66
2021/08/06 00:45:35;;;;;;;5.47;3.50;;;;;;;;;;5037095;28;20022;-67
2021/08/06 00:48:02;;;;;;;4.90;3.50;;;;;;;;;;5035064;28;20083;-66
2021/08/06 00:50:28;;;;;;;4.55;3.83;;;;;;;;;;5034554;28;20075;-66
2021/08/06 00:52:54;;;;;;;5.68;3.83;;;;;;;;;;5034312;28;20024;-66
2021/08/06 00:55:20;;;;;;;7.53;3.92;;;;;;;;;;5035344;28;20033;-66
2021/08/06 00:57:46;;;;;;;4.47;3.63;;;;;;;;;;5034216;28;20048;-66
2021/08/06 01:00:13;;;;;;;5.72;3.70;;;;;;;;;;5034519;28;20029;-67
2021/08/06 01:02:43;;;;;;;5.35;3.50;;;;;;;;;;5034003;28;20025;-67
2021/08/06 01:05:16;;;;;;;5.22;4.10;;;;;;;;;;5034534;28;20396;-66
2021/08/06 01:07:42;;;;;;;5.78;4.15;;;;;;;;;;5033873;28;20052;-66
2021/08/06 01:10:08;;;;;;;6.57;3.70;;;;;;;;;;5033979;28;20115;-67
2021/08/06 01:12:38;;;;;;;7.43;4.40;;;;;;;;;;5033684;28;20364;-66
2021/08/06 01:15:05;;;;;;;4.80;3.97;;;;;;;;;;5035395;28;20021;-66
2021/08/06 01:17:33;;;;;;;6.68;4.13;;;;;;;;;;5034027;28;20026;-65
2021/08/06 01:20:02;;;;;;;4.88;3.85;;;;;;;;;;5033669;28;20030;-66
2021/08/06 01:22:33;;;;;;;8.85;4.78;;;;;;;;;;5033779;28;20044;-66
2021/08/06 01:25:20;;;;;;;5.63;4.07;;;;;;;;;;5033459;28;20033;-67
2021/08/06 01:27:49;;;;;;;5.22;3.70;;;;;;;;;;5033185;28;20055;-66
2021/08/06 01:30:15;;;;;;;5.25;3.90;;;;;;;;;;5033674;28;20357;-66
2021/08/06 01:32:41;;;;;;;7.30;4.70;;;;;;;;;;5033428;28;20116;-66
2021/08/06 01:35:09;;;;;;;5.03;4.25;;;;;;;;;;5033365;28;20021;-66
2021/08/06 01:37:35;;;;;;;5.45;4.43;;;;;;;;;;5033378;28;20026;-66
2021/08/06 01:40:04;;;;;;;7.28;4.38;;;;;;;;;;5033026;28;20060;-65
2021/08/06 01:42:33;;;;;;;7.20;4.75;;;;;;;;;;5033088;28;20025;-66
2021/08/06 01:44:59;;;;;;;7.38;4.95;;;;;;;;;;5033098;28;20029;-66
2021/08/06 01:47:32;;;;;;;8.60;5.20;;;;;;;;;;5033374;28;20387;-65
2021/08/06 01:50:00;;;;;;;5.88;4.57;;;;;;;;;;5034202;28;20090;-66
2021/08/06 01:52:30;;;;;;;5.03;4.43;;;;;;;;;;5032910;28;20053;-66
2021/08/06 01:55:01;;;;;;;6.68;4.18;;;;;;;;;;5032838;28;20503;-66
2021/08/06 01:57:28;;;;;;;4.47;3.53;;;;;;;;;;5033329;28;20514;-67
2021/08/06 01:59:55;;;;;;;4.18;3.50;;;;;;;;;;5015549;28;20029;-67
2021/08/06 02:02:21;;;;;;;5.00;3.67;;;;;;;;;;5033051;28;20445;-66
2021/08/06 02:04:48;;;;;;;5.70;3.95;;;;;;;;;;5032692;28;20049;-66
2021/08/06 02:07:17;;;;;;;4.88;4.28;;;;;;;;;;5032805;28;20383;-67
2021/08/06 02:09:43;;;;;;;5.72;4.13;;;;;;;;;;5032636;28;20020;-66
2021/08/06 02:12:10;;;;;;;7.30;4.72;;;;;;;;;;5032764;28;20049;-68
2021/08/06 02:14:36;;;;;;;4.82;4.07;;;;;;;;;;5032620;28;20022;-67
2021/08/06 02:17:02;;;;;;;5.40;3.95;;;;;;;;;;5032865;28;20025;-67
2021/08/06 02:19:29;;;;;;;4.63;3.88;;;;;;;;;;5032664;28;20029;-66
2021/08/06 02:21:56;;;;;;;7.72;4.10;;;;;;;;;;5032613;28;20029;-66
2021/08/06 02:24:23;;;;;;;4.90;4.20;;;;;;;;;;5032837;28;20112;-66
2021/08/06 02:26:51;;;;;;;6.90;5.60;;;;;;;;;;5032392;28;20030;-67
2021/08/06 02:29:18;;;;;;;8.45;4.50;;;;;;;;;;5032625;28;20389;-66
2021/08/06 02:31:45;;;;;;;5.95;4.60;;;;;;;;;;5032611;28;20022;-67
2021/08/06 02:34:12;;;;;;;6.18;4.95;;;;;;;;;;5032559;28;20048;-66
2021/08/06 02:36:38;;;;;;;4.30;3.90;;;;;;;;;;5032768;28;20026;-67
2021/08/06 02:39:10;;;;;;;4.78;3.78;;;;;;;;;;5030556;28;20029;-66
2021/08/06 02:41:36;;;;;;;7.75;4.80;;;;;;;;;;5023613;28;20035;-67
2021/08/06 02:44:02;;;;;;;4.68;3.60;;;;;;;;;;5032284;28;20025;-66
2021/08/06 02:46:29;;;;;;;6.00;3.78;;;;;;;;;;5032119;28;20026;-66
2021/08/06 02:48:55;;;;;;;4.45;3.35;;;;;;;;;;5032378;28;20098;-66
2021/08/06 02:51:21;;;;;;;4.47;3.90;;;;;;;;;;5032769;28;20423;-65
2021/08/06 02:53:47;;;;;;;6.28;3.70;;;;;;;;;;5032185;28;20480;-66
2021/08/06 02:56:13;;;;;;;5.85;3.78;;;;;;;;;;5032252;28;20026;-66
2021/08/06 02:58:39;;;;;;;5.30;4.30;;;;;;;;;;5035295;28;20029;-67
2021/08/06 03:01:05;;;;;;;6.05;4.43;;;;;;;;;;5035903;28;20630;-67
2021/08/06 03:03:31;;;;;;;6.93;4.80;;;;;;;;;;5036395;28;20041;-66
2021/08/06 03:05:57;;;;;;;5.88;4.20;;;;;;;;;;5018528;28;20033;-67
2021/08/06 03:08:23;;;;;;;8.35;5.15;;;;;;;;;;5036040;28;20028;-67
2021/08/06 03:10:49;;;;;;;7.90;5.88;;;;;;;;;;5036067;28;20529;-66
2021/08/06 03:13:16;;;;;;;6.25;5.00;;;;;;;;;;5036225;28;20365;-68
2021/08/06 03:15:42;;;;;;;7.22;4.72;;;;;;;;;;5036545;28;20503;-66
2021/08/06 03:18:11;;;;;;;6.85;4.18;;;;;;;;;;5036515;28;20022;-66
2021/08/06 03:20:37;;;;;;;6.18;3.97;;;;;;;;;;5036597;28;20029;-66
2021/08/06 03:23:03;;;;;;;5.70;3.97;;;;;;;;;;5018076;28;20435;-67
2021/08/06 03:25:29;;;;;;;5.10;3.50;;;;;;;;;;5036564;28;20515;-67
2021/08/06 03:27:56;;;;;;;4.05;3.33;;;;;;;;;;5036207;28;20078;-67
2021/08/06 03:30:23;;;;;;;5.63;3.15;;;;;;;;;;5036281;28;20025;-67
2021/08/06 03:32:49;;;;;;;8.32;3.42;;;;;;;;;;5035873;28;20116;-67
2021/08/06 03:35:15;;;;;;;4.25;3.33;;;;;;;;;;5035770;28;20375;-68
2021/08/06 03:37:42;;;;;;;4.00;3.60;;;;;;;;;;5035790;28;20100;-67
2021/08/06 03:40:08;;;;;;;5.00;3.28;;;;;;;;;;5017810;28;20021;-66
2021/08/06 03:42:34;;;;;;;4.30;2.55;;;;;;;;;;5035428;28;20582;-66
2021/08/06 03:45:00;;;;;;;3.83;3.03;;;;;;;;;;5035437;28;20112;-66
2021/08/06 03:47:26;;;;;;;5.60;3.13;;;;;;;;;;5035559;28;20021;-66
2021/08/06 03:49:53;;;;;;;6.88;3.80;;;;;;;;;;5035885;28;20028;-67
2021/08/06 03:52:19;;;;;;;5.15;3.15;;;;;;;;;;5036233;28;20044;-66
2021/08/06 03:54:45;;;;;;;4.70;3.33;;;;;;;;;;5035770;28;20025;-67
2021/08/06 03:57:11;;;;;;;9.95;4.20;;;;;;;;;;5035936;28;20029;-67
2021/08/06 03:59:37;;;;;;;4.63;2.40;;;;;;;;;;5036073;28;20108;-67
2021/08/06 04:02:03;;;;;;;4.28;2.65;;;;;;;;;;5035943;28;20029;-67
2021/08/06 04:04:29;;;;;;;7.07;2.90;;;;;;;;;;5035246;28;20053;-67
2021/08/06 04:06:55;;;;;;;7.55;2.88;;;;;;;;;;5035300;28;20550;-66
2021/08/06 04:09:21;;;;;;;3.55;2.80;;;;;;;;;;5033768;28;20153;-67
2021/08/06 04:11:47;;;;;;;3.83;2.35;;;;;;;;;;5034199;28;20104;-67
2021/08/06 04:14:14;;;;;;;4.00;2.45;;;;;;;;;;5034160;28;20025;-66
2021/08/06 04:16:40;;;;;;;6.15;2.58;;;;;;;;;;5034054;28;20029;-66
2021/08/06 04:19:06;;;;;;;3.10;2.80;;;;;;;;;;5033914;28;20029;-66
2021/08/06 04:21:32;;;;;;;3.60;2.20;;;;;;;;;;5034437;28;20148;-68
2021/08/06 04:23:58;;;;;;;2.95;2.25;;;;;;;;;;5035489;28;20018;-65
2021/08/06 04:26:24;;;;;;;4.68;2.40;;;;;;;;;;5017876;28;20445;-66
2021/08/06 04:28:50;;;;;;;3.72;1.98;;;;;;;;;;5035358;28;20018;-66
2021/08/06 04:31:17;;;;;;;4.03;2.10;;;;;;;;;;5035162;28;20018;-67
2021/08/06 04:33:43;;;;;;;5.22;2.78;;;;;;;;;;5035363;28;20427;-67
2021/08/06 04:36:09;;;;;;;3.33;2.85;;;;;;;;;;5035084;28;20053;-66
2021/08/06 04:38:35;;;;;;;5.65;2.40;;;;;;;;;;5035277;28;20029;-66
2021/08/06 04:41:01;;;;;;;3.42;2.38;;;;;;;;;;5016718;28;20025;-67
2021/08/06 04:43:33;;;;;;;5.38;3.10;;;;;;;;;;5034608;28;20054;-66
2021/08/06 04:45:59;;;;;;;3.42;2.22;;;;;;;;;;5034566;28;20028;-67
2021/08/06 04:48:26;;;;;;;5.63;2.60;;;;;;;;;;5034909;28;20024;-67
2021/08/06 04:50:52;;;;;;;4.07;2.28;;;;;;;;;;5033966;28;20100;-67
2021/08/06 04:53:18;;;;;;;4.28;2.33;;;;;;;;;;5034641;28;20021;-66
2021/08/06 04:55:44;;;;;;;4.30;2.53;;;;;;;;;;5034744;28;20391;-66
2021/08/06 04:58:11;;;;;;;5.20;2.40;;;;;;;;;;5034917;28;20549;-67
2021/08/06 05:00:37;;;;;;;4.88;2.80;;;;;;;;;;5033915;28;20099;-66
2021/08/06 05:03:03;;;;;;;3.47;2.00;;;;;;;;;;5033905;28;20377;-66
2021/08/06 05:05:29;;;;;;;2.60;2.17;;;;;;;;;;5033940;28;20499;-67
2021/08/06 05:07:55;;;;;;;2.65;2.45;;;;;;;;;;5033927;28;20037;-66
2021/08/06 05:10:23;;;;;;;2.97;2.33;;;;;;;;;;5034538;28;20044;-66
2021/08/06 05:12:49;;;;;;;3.05;2.20;;;;;;;;;;5034518;28;20025;-66
2021/08/06 05:15:16;;;;;;;4.22;2.40;;;;;;;;;;5033981;28;20025;-66
2021/08/06 05:17:42;;;;;;;5.38;2.42;;;;;;;;;;5033148;28;20033;-66
2021/08/06 05:20:08;;;;;;;2.67;2.25;;;;;;;;;;5033350;28;20095;-67
2021/08/06 05:22:35;;;;;;;2.13;1.92;;;;;;;;;;5034557;28;20056;-65
2021/08/06 05:25:01;;;;;;;3.70;2.00;;;;;;;;;;5034137;28;20035;-67
2021/08/06 05:27:30;;;;;;;3.42;1.88;;;;;;;;;;5033717;28;20088;-66
2021/08/06 05:29:56;;;;;;;3.42;1.77;;;;;;;;;;5034587;28;20507;-66
2021/08/06 05:32:22;;;;;;;1.98;1.77;;;;;;;;;;5033585;28;20479;-66
2021/08/06 05:34:48;;;;;;;2.88;1.98;;;;;;;;;;5034223;28;20045;-66
2021/08/06 05:37:17;;;;;;;4.78;1.70;;;;;;;;;;5034525;28;20079;-65
2021/08/06 05:39:43;;;;;;;2.75;1.85;;;;;;;;;;5034019;28;20563;-66
2021/08/06 05:42:10;;;;;;;3.00;2.30;;;;;;;;;;5034106;28;20033;-66
2021/08/06 05:44:36;;;;;;;3.17;1.65;;;;;;;;;;5029934;28;20030;-65
2021/08/06 05:47:02;;;;;;;1.80;1.52;;;;;;;;;;5022852;28;20026;-66
2021/08/06 05:49:28;;;;;;;4.03;1.67;;;;;;;;;;5025631;28;20049;-66
2021/08/06 05:51:55;;;;;;;2.00;1.80;;;;;;;;;;5033204;28;20022;-67
2021/08/06 05:54:21;;;;;;;2.05;1.70;;;;;;;;;;5033082;28;20071;-66
2021/08/06 05:56:47;;;;;;;1.50;1.40;;;;;;;;;;5032048;28;20022;-66
2021/08/06 05:59:13;;;;;;;2.15;1.80;;;;;;;;;;5031389;28;20053;-66
2021/08/06 06:01:39;;;;;;;2.53;1.80;;;;;;;;;;5031415;28;20480;-65
2021/08/06 06:04:05;;;;;;;3.40;1.75;;;;;;;;;;5031464;28;20055;-66
2021/08/06 06:06:33;;;;;;;2.20;1.75;;;;;;;;;;5031246;28;20487;-65
2021/08/06 06:08:59;;;;;;;2.30;1.58;;;;;;;;;;5031132;28;20041;-66
2021/08/06 06:11:25;;;;;;;2.17;1.98;;;;;;;;;;5032841;28;20023;-66
2021/08/06 06:13:51;;;;;;;3.53;2.13;;;;;;;;;;5033068;28;20017;-66
2021/08/06 06:16:17;;;;;;;3.03;1.92;;;;;;;;;;5031660;28;20072;-66
2021/08/06 06:18:44;;;;;;;2.00;1.80;;;;;;;;;;5027221;28;20100;-67
2021/08/06 06:21:10;;;;;;;2.95;1.80;;;;;;;;;;5032727;28;20053;-67
2021/08/06 06:23:37;;;;;;;4.70;2.00;;;;;;;;;;5032256;28;20032;-66
2021/08/06 06:26:05;;;;;;;2.83;2.17;;;;;;;;;;5032920;28;20026;-67
2021/08/06 06:28:32;;;;;;;2.05;1.60;;;;;;;;;;5031693;28;20024;-67
2021/08/06 06:30:58;;;;;;;3.42;2.08;;;;;;;;;;5032780;28;20056;-66
2021/08/06 06:33:25;;;;;;;2.85;1.77;;;;;;;;;;5032085;28;20025;-66
2021/08/06 06:35:51;;;;;;;2.83;2.00;;;;;;;;;;5014874;28;20056;-66
2021/08/06 06:38:18;;;;;;;3.78;2.00;;;;;;;;;;5021657;28;20034;-68
2021/08/06 06:40:44;;;;;;;4.20;2.50;;;;;;;;;;5025175;28;20040;-65
2021/08/06 06:43:10;;;;;;;3.63;2.28;;;;;;;;;;5023731;28;20558;-66
2021/08/06 06:45:36;;;;;;;3.50;2.63;;;;;;;;;;5026712;28;20037;-66
2021/08/06 06:48:03;;;;;;;3.85;2.35;;;;;;;;;;5010716;28;20061;-65
2021/08/06 06:50:30;;;;;;;2.72;2.00;;;;;;;;;;5357032;22;20057;-68
2021/08/06 06:52:56;;;;;;;3.63;2.00;;;;;;;;;;4997207;28;20026;-69
2021/08/06 06:55:23;;;;;;;4.03;2.35;;;;;;;;;;4995669;28;20192;-69
2021/08/06 06:57:55;;;;;;;4.00;2.85;;;;;;;;;;5009239;28;20030;-70
2021/08/06 07:00:23;;;;;;;4.35;2.60;;;;;;;;;;4994508;28;20034;-70
2021/08/06 07:02:49;;;;;;;5.57;2.20;;;;;;;;;;4992213;28;20034;-68
2021/08/06 07:05:15;;;;;;;7.40;2.70;;;;;;;;;;5009031;28;20041;-69
2021/08/06 07:07:42;;;;;;;3.15;2.30;;;;;;;;;;5005647;28;20034;-68
2021/08/06 07:10:08;;;;;;;3.33;2.45;;;;;;;;;;4991503;28;20041;-69
2021/08/06 07:12:35;;;;;;;4.97;2.15;;;;;;;;;;4990295;28;20105;-70
2021/08/06 07:15:04;;;;;;;6.05;2.85;;;;;;;;;;4989915;28;20046;-69
2021/08/06 07:17:30;;;;;;;8.73;4.63;;;;;;;;;;4989230;28;20030;-69
2021/08/06 07:19:56;;;;;;;4.22;2.92;;;;;;;;;;4992082;28;20061;-69
2021/08/06 07:22:23;;;;;;;6.03;2.55;;;;;;;;;;4990090;28;20049;-69
2021/08/06 07:24:49;;;;;;;6.82;2.80;;;;;;;;;;5002864;28;20515;-69
2021/08/06 07:27:15;;;;;;;7.32;2.92;;;;;;;;;;5005614;28;20031;-69
2021/08/06 07:29:41;;;;;;;5.80;2.58;;;;;;;;;;4989010;28;20034;-71
2021/08/06 07:32:07;;;;;;;5.57;2.75;;;;;;;;;;4991275;28;20038;-71
2021/08/06 07:34:33;;;;;;;6.38;2.88;;;;;;;;;;4972007;28;20038;-70
2021/08/06 07:36:59;;;;;;;5.80;3.40;;;;;;;;;;4996850;28;20547;-68
2021/08/06 07:39:25;;;;;;;8.13;3.10;;;;;;;;;;5000796;28;20065;-69
2021/08/06 07:41:52;;;;;;;7.13;2.70;;;;;;;;;;4995568;28;20128;-69
2021/08/06 07:44:18;;;;;;;8.00;3.00;;;;;;;;;;4997504;28;20531;-70
2021/08/06 07:46:44;;;;;;;4.95;2.88;;;;;;;;;;4999696;28;20038;-71
2021/08/06 07:49:10;;;;;;;6.97;2.70;;;;;;;;;;5004467;28;20134;-71
2021/08/06 07:51:37;;;;;;;5.35;2.63;;;;;;;;;;5011846;28;20033;-70
2021/08/06 07:54:03;;;;;;;8.25;3.00;;;;;;;;;;5011426;28;20025;-69
2021/08/06 07:59:05;;;;;;;8.45;2.92;;;;;;;;;;5187718;22;20116;-60
2021/08/06 08:01:31;;;;;;;4.65;2.75;;;;;;;;;;5068308;28;20029;-60
2021/08/06 08:03:58;;;;;;;4.53;2.67;;;;;;;;;;5062617;28;20021;-60
2021/08/06 08:06:24;;;;;;;6.45;2.90;;;;;;;;;;5079990;22;20058;-73
2021/08/06 08:08:50;;;;;;;7.13;3.22;;;;;;;;;;5006735;28;20523;-75
2021/08/06 08:11:16;;;;;;;5.60;2.60;;;;;;;;;;5008289;28;20483;-72
2021/08/06 08:13:42;;;;;;;6.88;2.97;;;;;;;;;;5007393;28;20103;-71
2021/08/06 08:16:08;;;;;;;6.22;3.13;;;;;;;;;;5006107;28;20108;-70
2021/08/06 08:18:35;;;;;;;7.70;3.35;;;;;;;;;;5005180;28;20034;-70
2021/08/06 08:21:01;;;;;;;6.10;2.78;;;;;;;;;;5002399;28;20033;-72
2021/08/06 08:23:27;;;;;;;10.40;3.53;;;;;;;;;;5006399;28;20037;-72
2021/08/06 08:28:25;;;;;;;6.95;3.42;;;;;;;;;;4968132;28;20085;-65
2021/08/06 08:30:51;;;;;;;6.47;3.05;;;;;;;;;;4991474;28;20404;-64
2021/08/06 08:33:18;;;;;;;5.03;2.90;;;;;;;;;;4991030;28;20385;-70
2021/08/06 08:45:58;;;;;;;8.57;3.50;;;;;;;;;;5006951;28;20046;-74
2021/08/06 08:48:24;;;;;;;4.38;2.72;;;;;;;;;;5015316;28;20506;-71
2021/08/06 08:50:54;;;;;;;8.57;3.65;;;;;;;;;;5021298;28;20110;-75
2021/08/06 08:53:20;;;;;;;4.65;3.00;;;;;;;;;;5010601;28;20022;-74
2021/08/06 08:55:47;;;;;;;9.10;3.53;;;;;;;;;;5018884;28;20049;-74
2021/08/06 08:58:13;;;;;;;6.60;3.17;;;;;;;;;;5015086;28;20080;-75
2021/08/06 09:00:43;;;;;;;6.45;2.70;;;;;;;;;;5001256;28;20081;-70
2021/08/06 09:03:09;;;;;;;5.72;3.28;;;;;;;;;;5019231;28;20029;-71
2021/08/06 09:05:35;;;;;;;4.93;3.17;;;;;;;;;;5013504;28;20432;-70
2021/08/06 09:08:17;;;;;;;6.72;2.75;;;;;;;;;;5014098;28;20471;-75
2021/08/06 09:10:44;;;;;;;7.32;2.90;;;;;;;;;;5015523;28;20114;-70
2021/08/06 09:13:10;;;;;;;6.53;3.85;;;;;;;;;;5016437;28;20033;-70
2021/08/06 09:15:41;;;;;;;6.90;2.88;;;;;;;;;;5015768;28;20538;-71
2021/08/06 09:18:26;;;;;;;9.65;3.38;;;;;;;;;;5017883;28;20026;-72
2021/08/06 09:20:52;;;;;;;;;;;;;;;;;;5020661;28;20112;-67
2021/08/06 09:23:57;;;;;;;6.55;3.10;;;;;;;;;;5027043;28;20391;-67
2021/08/06 09:26:29;;;;;;;4.80;2.45;;;;;;;;;;4938460;29;20039;-73
2021/08/06 09:29:03;;;;;;;9.05;3.15;;;;;;;;;;4923432;29;20391;-71
2021/08/06 09:31:29;;;;;;;6.97;2.78;;;;;;;;;;4979505;28;20125;-67
2021/08/06 09:34:14;;;;;;;11.43;3.33;;;;;;;;;;5020189;28;20097;-72
2021/08/06 09:37:11;;;;;;;5.47;3.20;;;;;;;;;;5026233;28;20421;-70
2021/08/06 09:39:47;;;;;;;7.25;3.70;;;;;;;;;;5024080;28;20079;-67
2021/08/06 09:42:19;;;;;;;9.75;3.67;;;;;;;;;;5003877;28;20028;-71
2021/08/06 09:44:47;;;;;;;7.78;3.10;;;;;;;;;;5019199;28;20121;-75
2021/08/06 09:47:17;;;;;;;7.70;3.30;;;;;;;;;;5019754;28;20038;-78
2021/08/06 09:49:45;;;;;;;7.43;3.17;;;;;;;;;;5024954;28;20365;-75
2021/08/06 09:52:12;;;;;;;6.35;4.03;;;;;;;;;;5001253;28;20605;-75
2021/08/06 09:54:38;;;;;;;14.75;5.13;;;;;;;;;;4998437;28;20584;-77
2021/08/06 09:57:08;;;;;;;7.32;3.20;;;;;;;;;;5013486;28;20029;-77
2021/08/06 09:59:35;;;;;;;7.70;3.22;;;;;;;;;;5012572;28;20052;-79
2021/08/06 10:02:25;;;;;;;6.38;3.20;;;;;;;;;;5022907;28;20097;-76
2021/08/06 10:05:06;;;;;;;9.00;3.35;;;;;;;;;;5008409;28;20046;-78
2021/08/06 10:07:33;;;;;;;7.28;2.90;;;;;;;;;;5017853;28;20045;-78
2021/08/06 10:10:00;;;;;;;6.28;3.40;;;;;;;;;;5016472;28;20057;-76
2021/08/06 10:12:26;;;;;;;7.45;2.97;;;;;;;;;;5013954;28;20057;-76
2021/08/06 10:14:52;;;;;;;3.75;3.25;;;;;;;;;;5013840;28;20018;-76
2021/08/06 10:17:19;;;;;;;7.15;4.20;;;;;;;;;;5008057;28;20384;-77
2021/08/06 10:19:48;;;;;;;9.90;4.10;;;;;;;;;;5006695;28;20053;-76
2021/08/06 10:22:15;;;;;;;7.70;3.35;;;;;;;;;;5009645;28;20018;-76
2021/08/06 10:24:42;;;;;;;6.55;3.22;;;;;;;;;;4996142;28;20054;-76
2021/08/06 10:27:09;;;;;;;6.28;2.97;;;;;;;;;;5013730;28;20100;-76
2021/08/06 10:29:35;;;;;;;5.05;3.20;;;;;;;;;;5014797;28;20052;-77
2021/08/06 10:32:10;;;;;;;9.73;3.78;;;;;;;;;;5015190;28;20029;-77
2021/08/06 10:34:37;;;;;;;;;;;;;;;;;;5014918;28;20037;-76
2021/08/06 10:37:04;;;;;;;5.65;3.97;;;;;;;;;;5016977;28;19924;-76
2021/08/06 10:39:38;;;;;;;5.90;2.97;;;;;;;;;;5300900;22;20058;-69
2021/08/06 10:42:05;;;;;;;3.78;2.40;;;;;;;;;;5003951;28;20131;-69
2021/08/06 10:44:53;;;;;;;4.13;2.88;;;;;;;;;;5011228;28;20061;-69
2021/08/06 10:47:19;;;;;;;5.15;2.83;;;;;;;;;;5000130;28;20037;-69
2021/08/06 10:50:05;;;;;;;5.55;2.53;;;;;;;;;;5007785;28;20113;-68
2021/08/06 10:52:31;;;;;;;5.78;2.72;;;;;;;;;;5006809;28;20022;-69
2021/08/06 10:55:14;;;;;;;6.22;3.38;;;;;;;;;;5008031;28;20034;-69
2021/08/06 10:57:40;;;;;;;4.00;2.60;;;;;;;;;;5011259;28;20068;-69
2021/08/06 11:00:07;;;;;;;4.75;2.53;;;;;;;;;;4994289;28;20084;-69
2021/08/06 11:02:39;;;;;;;6.20;2.75;;;;;;;;;;5008088;28;20483;-70
2021/08/06 11:05:26;;;;;;;3.13;2.35;;;;;;;;;;5010818;28;20053;-70
2021/08/06 11:07:52;;;;;;;12.25;3.53;;;;;;;;;;5002627;28;20045;-72
2021/08/06 11:10:37;;;;;;;7.03;3.28;;;;;;;;;;5012668;28;20615;-69
2021/08/06 11:13:24;;;;;;;3.30;2.65;;;;;;;;;;5009107;28;20034;-67
2021/08/06 11:16:10;;;;;;;3.38;2.30;;;;;;;;;;4993575;28;20046;-69
2021/08/06 11:18:43;;;;;;;5.03;2.40;;;;;;;;;;5013741;28;20021;-69
2021/08/06 11:21:10;;;;;;;5.57;2.55;;;;;;;;;;5012314;28;20026;-69
2021/08/06 11:23:36;;;;;;;4.40;2.60;;;;;;;;;;5011980;28;20026;-70
2021/08/06 11:26:09;;;;;;;7.10;2.17;;;;;;;;;;5015120;28;20151;-69
2021/08/06 11:28:35;;;;;;;4.22;2.30;;;;;;;;;;5014404;28;20041;-72
2021/08/06 11:31:13;;;;;;;4.32;2.28;;;;;;;;;;4997422;28;20392;-70
2021/08/06 11:33:39;;;;;;;3.70;2.28;;;;;;;;;;5013572;28;20032;-70
2021/08/06 11:36:14;;;;;;;4.22;2.08;;;;;;;;;;5015382;28;20026;-69
2021/08/06 11:38:40;;;;;;;6.05;2.10;;;;;;;;;;5014198;28;20097;-69
2021/08/06 11:41:06;;;;;;;3.97;2.03;;;;;;;;;;5015228;28;20034;-68
2021/08/06 11:43:37;;;;;;;2.20;1.90;;;;;;;;;;5015845;28;20053;-71
2021/08/06 11:46:11;;;;;;;2.50;1.85;;;;;;;;;;5015300;28;20029;-70
2021/08/06 11:48:59;;;;;;;4.07;2.05;;;;;;;;;;5015182;28;20026;-68
2021/08/06 11:51:25;;;;;;;3.88;2.33;;;;;;;;;;5016758;28;20025;-69
2021/08/06 11:53:51;;;;;;;4.20;1.80;;;;;;;;;;5013629;28;20022;-68
2021/08/06 11:56:19;;;;;;;2.83;1.73;;;;;;;;;;5014201;28;20030;-69
2021/08/06 11:58:49;;;;;;;2.17;1.85;;;;;;;;;;5010753;28;20074;-70
2021/08/06 12:01:20;;;;;;;2.65;1.80;;;;;;;;;;5005574;28;20376;-69
2021/08/06 12:03:50;;;;;;;1.40;1.30;;;;;;;;;;5014179;28;20030;-70
2021/08/06 12:06:17;;;;;;;3.63;1.50;;;;;;;;;;5017383;28;20025;-69
2021/08/06 12:08:48;;;;;;;2.20;1.33;;;;;;;;;;5016058;28;20037;-69
2021/08/06 12:11:14;;;;;;;3.05;1.50;;;;;;;;;;5015026;28;20374;-70
2021/08/06 12:13:42;;;;;;;2.72;2.13;;;;;;;;;;5014493;28;20050;-70
2021/08/06 12:16:09;;;;;;;2.30;1.63;;;;;;;;;;5018055;28;20072;-70
2021/08/06 12:18:36;;;;;;;2.72;1.60;;;;;;;;;;5014331;28;20467;-70
2021/08/06 12:21:09;;;;;;;2.08;1.52;;;;;;;;;;5014285;28;20113;-69
2021/08/06 12:23:36;;;;;;;1.75;1.60;;;;;;;;;;5016399;28;20037;-69
2021/08/06 12:26:13;;;;;;;1.90;1.60;;;;;;;;;;5019991;28;20030;-69
2021/08/06 12:28:40;;;;;;;5.68;1.55;;;;;;;;;;5014590;28;20029;-67
2021/08/06 12:31:16;;;;;;;1.80;1.42;;;;;;;;;;5014131;28;20101;-71
2021/08/06 12:33:44;;;;;;;2.83;2.17;;;;;;;;;;5011752;28;20045;-70
2021/08/06 12:36:11;;;;;;;2.40;1.83;;;;;;;;;;4978617;28;20396;-69
2021/08/06 12:38:38;;;;;;;2.28;1.52;;;;;;;;;;4973663;28;20149;-69
2021/08/06 12:41:04;;;;;;;3.38;1.80;;;;;;;;;;5016272;28;20062;-68
2021/08/06 12:43:30;;;;;;;1.70;1.50;;;;;;;;;;5013838;28;20033;-70
2021/08/06 12:46:12;;;;;;;3.50;1.52;;;;;;;;;;5009355;28;20052;-69
2021/08/06 12:48:58;;;;;;;3.47;1.52;;;;;;;;;;5008866;28;20022;-69
2021/08/06 12:51:24;;;;;;;2.65;2.08;;;;;;;;;;5010194;28;20025;-67
2021/08/06 12:53:50;;;;;;;3.40;2.08;;;;;;;;;;5013448;28;20053;-68
2021/08/06 12:56:16;;;;;;;2.80;1.60;;;;;;;;;;5018669;28;20030;-69
2021/08/06 12:58:43;;;;;;;2.53;1.60;;;;;;;;;;5024228;28;20034;-65
2021/08/06 13:01:09;;;;;;;3.33;1.70;;;;;;;;;;5008514;28;20030;-67
2021/08/06 13:03:43;;;;;;;3.03;1.85;;;;;;;;;;5009030;28;20030;-66
2021/08/06 13:06:09;;;;;;;3.05;1.90;;;;;;;;;;5001782;28;20037;-68
2021/08/06 13:08:41;;;;;;;2.45;1.80;;;;;;;;;;5015158;28;20030;-68
2021/08/06 13:11:15;;;;;;;1.58;1.48;;;;;;;;;;5011851;28;20484;-69
2021/08/06 13:13:44;;;;;;;4.43;1.75;;;;;;;;;;5012985;28;20121;-68
2021/08/06 13:16:12;;;;;;;3.53;1.50;;;;;;;;;;5018368;28;20487;-69
2021/08/06 13:18:38;;;;;;;1.85;1.65;;;;;;;;;;5015223;28;20029;-68
2021/08/06 13:21:04;;;;;;;2.78;2.30;;;;;;;;;;5013209;28;20376;-66
2021/08/06 13:23:31;;;;;;;4.13;2.00;;;;;;;;;;5013291;28;20037;-68
2021/08/06 13:25:57;;;;;;;3.88;2.00;;;;;;;;;;5013812;28;20022;-68
2021/08/06 13:28:25;;;;;;;3.55;2.10;;;;;;;;;;5014309;28;20038;-67
2021/08/06 13:30:51;;;;;;;3.97;1.90;;;;;;;;;;5016022;28;20045;-66
2021/08/06 13:33:18;;;;;;;4.13;2.40;;;;;;;;;;4977151;28;20030;-67
2021/08/06 13:35:44;;;;;;;6.15;2.20;;;;;;;;;;5013384;28;20084;-68
2021/08/06 13:38:10;;;;;;;3.50;2.03;;;;;;;;;;5013293;28;20049;-67
2021/08/06 13:40:37;;;;;;;6.05;2.30;;;;;;;;;;4989897;28;20045;-66
2021/08/06 13:43:08;;;;;;;4.18;2.05;;;;;;;;;;5022797;28;20030;-66
2021/08/06 13:45:36;;;;;;;4.07;2.00;;;;;;;;;;5022797;28;20029;-67
2021/08/06 13:48:02;;;;;;;3.40;2.22;;;;;;;;;;5019372;28;20065;-67
2021/08/06 13:50:28;;;;;;;5.78;2.10;;;;;;;;;;5012881;28;20026;-67
2021/08/06 13:52:55;;;;;;;2.88;2.28;;;;;;;;;;5017929;28;20507;-66
2021/08/06 13:55:21;;;;;;;3.00;2.10;;;;;;;;;;5018745;28;20033;-67
2021/08/06 13:57:47;;;;;;;3.72;2.10;;;;;;;;;;4998717;28;20026;-67
2021/08/06 14:00:14;;;;;;;5.72;2.10;;;;;;;;;;5017005;28;20021;-65
2021/08/06 14:02:42;;;;;;;4.90;2.38;;;;;;;;;;5017530;28;20034;-67
2021/08/06 14:05:09;;;;;;;4.95;2.33;;;;;;;;;;5013899;28;20030;-67
2021/08/06 14:07:35;;;;;;;2.92;2.10;;;;;;;;;;4999198;28;20480;-66
2021/08/06 14:10:01;;;;;;;5.10;2.30;;;;;;;;;;5002477;28;20030;-68
2021/08/06 14:12:28;;;;;;;4.18;2.40;;;;;;;;;;5014001;28;20018;-69
2021/08/06 14:14:54;;;;;;;4.55;2.30;;;;;;;;;;5014995;28;20029;-69
2021/08/06 14:17:20;;;;;;;3.38;2.10;;;;;;;;;;5002536;28;20029;-68
2021/08/06 14:19:47;;;;;;;4.53;2.90;;;;;;;;;;5011780;28;20068;-68
2021/08/06 14:22:13;;;;;;;4.40;2.50;;;;;;;;;;5015038;28;20119;-68
2021/08/06 14:24:39;;;;;;;5.32;2.20;;;;;;;;;;5013348;28;20507;-68
2021/08/06 14:27:05;;;;;;;7.32;2.30;;;;;;;;;;5010507;28;20038;-69
2021/08/06 14:29:31;;;;;;;3.17;1.88;;;;;;;;;;5012527;28;20590;-70
2021/08/06 14:31:58;;;;;;;4.03;1.70;;;;;;;;;;5014577;28;20076;-69
2021/08/06 14:34:24;;;;;;;3.45;1.58;;;;;;;;;;5014744;28;20026;-69
2021/08/06 14:36:50;;;;;;;2.70;1.98;;;;;;;;;;5015224;28;20018;-69
2021/08/06 14:39:17;;;;;;;2.83;1.58;;;;;;;;;;5003461;28;20519;-68
2021/08/06 14:41:45;;;;;;;3.03;1.70;;;;;;;;;;5013964;28;20026;-65
2021/08/06 14:44:11;;;;;;;2.97;1.75;;;;;;;;;;5020376;28;20022;-70
2021/08/06 14:46:39;;;;;;;1.92;1.73;;;;;;;;;;5020428;28;20440;-69
2021/08/06 14:49:12;;;;;;;3.28;1.90;;;;;;;;;;4998290;28;20411;-68
2021/08/06 14:51:38;;;;;;;5.03;1.95;;;;;;;;;;5016782;28;20058;-69
2021/08/06 14:54:05;;;;;;;2.15;1.70;;;;;;;;;;5009695;28;20065;-69
2021/08/06 14:56:31;;;;;;;2.30;1.70;;;;;;;;;;5016150;28;20029;-68
2021/08/06 14:58:57;;;;;;;2.70;2.05;;;;;;;;;;5007053;28;20030;-69
2021/08/06 15:01:24;;;;;;;4.45;2.20;;;;;;;;;;5017067;28;20045;-70
2021/08/06 15:03:50;;;;;;;5.22;1.90;;;;;;;;;;5023877;28;20495;-70